sensor_id;sensor_type;location;lat;lon;timestamp;pressure;altitude;pressure_sealevel;temperature;humidity
59315;BME280;46521;50.160;20.802;2023-08-17T00:03:08;99923.33;;;23.74;58.43
59315;BME280;46521;50.160;20.802;2023-08-17T00:13:09;99922.52;;;23.74;58.24
59315;BME280;46521;50.160;20.802;2023-08-17T00:23:11;99925.97;;;23.69;58.48
59315;BME280;46521;50.160;20.802;2023-08-17T00:33:12;99925.72;;;23.71;58.47
59315;BME280;46521;50.160;20.802;2023-08-17T00:43:14;99922.46;;;23.69;58.79
59315;BME280;46521;50.160;20.802;2023-08-17T00:53:19;99928.29;;;23.61;58.95
59315;BME280;46521;50.160;20.802;2023-08-17T01:03:22;99927.14;;;23.56;58.92
59315;BME280;46521;50.160;20.802;2023-08-17T01:13:34;99938.50;;;23.42;58.94
59315;BME280;46521;50.160;20.802;2023-08-17T01:23:36;99934.50;;;23.27;59.11
59315;BME280;46521;50.160;20.802;2023-08-17T01:33:44;99933.50;;;22.71;59.84
59315;BME280;46521;50.160;20.802;2023-08-17T01:43:48;99938.18;;;22.46;60.23
59315;BME280;46521;50.160;20.802;2023-08-17T01:53:50;99951.23;;;22.66;60.30
59315;BME280;46521;50.160;20.802;2023-08-17T02:03:51;99954.74;;;22.67;60.35
59315;BME280;46521;50.160;20.802;2023-08-17T02:13:52;99946.66;;;22.67;60.24
59315;BME280;46521;50.160;20.802;2023-08-17T02:23:54;99941.34;;;22.72;60.48
59315;BME280;46521;50.160;20.802;2023-08-17T02:33:56;99953.30;;;22.76;60.45
59315;BME280;46521;50.160;20.802;2023-08-17T02:44:01;99951.56;;;22.70;60.64
59315;BME280;46521;50.160;20.802;2023-08-17T02:54:03;99960.52;;;22.59;60.60
59315;BME280;46521;50.160;20.802;2023-08-17T03:04:05;99965.70;;;22.48;61.10
59315;BME280;46521;50.160;20.802;2023-08-17T03:14:06;99969.44;;;22.47;61.22
59315;BME280;46521;50.160;20.802;2023-08-17T03:24:08;99970.06;;;22.38;61.37
59315;BME280;46521;50.160;20.802;2023-08-17T03:34:09;99971.61;;;22.34;61.54
59315;BME280;46521;50.160;20.802;2023-08-17T03:44:11;99966.89;;;22.41;61.47
59315;BME280;46521;50.160;20.802;2023-08-17T03:54:14;99980.84;;;22.38;61.86
59315;BME280;46521;50.160;20.802;2023-08-17T04:04:18;99960.22;;;22.43;62.07
59315;BME280;46521;50.160;20.802;2023-08-17T04:14:20;99982.11;;;22.47;61.96
59315;BME280;46521;50.160;20.802;2023-08-17T04:24:21;100003.70;;;22.35;62.42
59315;BME280;46521;50.160;20.802;2023-08-17T04:34:23;99998.19;;;22.30;62.50
59315;BME280;46521;50.160;20.802;2023-08-17T04:44:25;100007.17;;;22.47;62.54
59315;BME280;46521;50.160;20.802;2023-08-17T04:54:27;100007.39;;;22.58;62.54
59315;BME280;46521;50.160;20.802;2023-08-17T05:04:30;100018.65;;;22.55;63.01
59315;BME280;46521;50.160;20.802;2023-08-17T05:14:32;100006.44;;;22.64;63.32
59315;BME280;46521;50.160;20.802;2023-08-17T05:24:33;100002.88;;;22.35;64.10
59315;BME280;46521;50.160;20.802;2023-08-17T05:34:35;99985.98;;;22.39;64.71
59315;BME280;46521;50.160;20.802;2023-08-17T05:44:36;100001.53;;;22.61;64.27
59315;BME280;46521;50.160;20.802;2023-08-17T05:54:38;99996.73;;;22.92;65.01
59315;BME280;46521;50.160;20.802;2023-08-17T06:04:39;99988.89;;;23.07;65.00
59315;BME280;46521;50.160;20.802;2023-08-17T06:14:41;99975.55;;;23.12;64.73
59315;BME280;46521;50.160;20.802;2023-08-17T06:24:43;99985.20;;;23.25;64.58
59315;BME280;46521;50.160;20.802;2023-08-17T06:34:45;99981.78;;;23.30;64.90
59315;BME280;46521;50.160;20.802;2023-08-17T06:44:46;100001.06;;;23.38;64.88
59315;BME280;46521;50.160;20.802;2023-08-17T06:54:48;99991.44;;;23.77;64.73
59315;BME280;46521;50.160;20.802;2023-08-17T07:04:49;99975.36;;;24.04;64.63
59315;BME280;46521;50.160;20.802;2023-08-17T07:14:51;100006.56;;;24.34;64.00
59315;BME280;46521;50.160;20.802;2023-08-17T07:24:53;100024.57;;;24.89;63.36
59315;BME280;46521;50.160;20.802;2023-08-17T07:34:54;100033.44;;;25.66;61.51
59315;BME280;46521;50.160;20.802;2023-08-17T07:44:56;100026.66;;;26.01;60.86
59315;BME280;46521;50.160;20.802;2023-08-17T07:54:57;100027.66;;;26.38;59.16
59315;BME280;46521;50.160;20.802;2023-08-17T08:04:59;100029.20;;;26.71;58.20
59315;BME280;46521;50.160;20.802;2023-08-17T08:15:01;100029.61;;;27.73;57.50
59315;BME280;46521;50.160;20.802;2023-08-17T08:25:03;100023.05;;;28.85;55.12
59315;BME280;46521;50.160;20.802;2023-08-17T08:35:05;100021.23;;;29.15;54.24
59315;BME280;46521;50.160;20.802;2023-08-17T08:45:07;100010.91;;;29.12;53.36
59315;BME280;46521;50.160;20.802;2023-08-17T08:55:17;100003.85;;;29.11;52.46
59315;BME280;46521;50.160;20.802;2023-08-17T09:05:19;99991.70;;;29.96;50.36
59315;BME280;46521;50.160;20.802;2023-08-17T09:15:22;99991.92;;;30.48;49.88
59315;BME280;46521;50.160;20.802;2023-08-17T09:25:24;100006.79;;;30.61;49.55
59315;BME280;46521;50.160;20.802;2023-08-17T09:35:25;99993.34;;;31.22;48.68
59315;BME280;46521;50.160;20.802;2023-08-17T09:45:27;99983.61;;;31.49;47.46
59315;BME280;46521;50.160;20.802;2023-08-17T09:55:30;99973.23;;;31.65;46.74
59315;BME280;46521;50.160;20.802;2023-08-17T10:05:38;99960.84;;;32.28;45.28
59315;BME280;46521;50.160;20.802;2023-08-17T10:26:11;99957.25;;;32.41;43.73
59315;BME280;46521;50.160;20.802;2023-08-17T10:36:13;99953.55;;;32.09;42.86
59315;BME280;46521;50.160;20.802;2023-08-17T10:46:16;99968.91;;;32.05;42.57
59315;BME280;46521;50.160;20.802;2023-08-17T10:56:26;99965.30;;;32.24;41.81
59315;BME280;46521;50.160;20.802;2023-08-17T11:06:28;99958.58;;;32.02;41.07
59315;BME280;46521;50.160;20.802;2023-08-17T11:16:30;99963.35;;;31.83;41.66
59315;BME280;46521;50.160;20.802;2023-08-17T11:26:31;99953.85;;;32.22;41.22
59315;BME280;46521;50.160;20.802;2023-08-17T11:36:33;99959.53;;;32.62;40.26
59315;BME280;46521;50.160;20.802;2023-08-17T11:46:35;99958.24;;;32.59;40.57
59315;BME280;46521;50.160;20.802;2023-08-17T11:56:37;99959.94;;;32.19;40.57
59315;BME280;46521;50.160;20.802;2023-08-17T12:06:43;99959.29;;;31.80;40.88
59315;BME280;46521;50.160;20.802;2023-08-17T12:16:47;99941.67;;;32.00;41.26
59315;BME280;46521;50.160;20.802;2023-08-17T12:26:49;99940.23;;;32.30;40.21
59315;BME280;46521;50.160;20.802;2023-08-17T12:36:51;99933.47;;;32.00;40.05
59315;BME280;46521;50.160;20.802;2023-08-17T12:46:52;99918.86;;;31.63;40.15
59315;BME280;46521;50.160;20.802;2023-08-17T12:56:53;99910.19;;;31.28;40.67
59315;BME280;46521;50.160;20.802;2023-08-17T13:06:55;99906.62;;;31.14;41.23
59315;BME280;46521;50.160;20.802;2023-08-17T13:16:56;99898.38;;;31.00;41.07
59315;BME280;46521;50.160;20.802;2023-08-17T13:26:58;99906.78;;;30.84;43.09
59315;BME280;46521;50.160;20.802;2023-08-17T13:36:59;99891.92;;;30.39;44.13
59315;BME280;46521;50.160;20.802;2023-08-17T13:47:03;99883.36;;;29.78;45.36
59315;BME280;46521;50.160;20.802;2023-08-17T13:57:05;99881.13;;;29.61;46.28
59315;BME280;46521;50.160;20.802;2023-08-17T14:07:06;99875.38;;;29.62;47.14
59315;BME280;46521;50.160;20.802;2023-08-17T14:17:08;99873.91;;;29.46;47.16
59315;BME280;46521;50.160;20.802;2023-08-17T14:27:09;99870.78;;;28.65;47.90
59315;BME280;46521;50.160;20.802;2023-08-17T14:37:11;99871.61;;;28.10;49.27
59315;BME280;46521;50.160;20.802;2023-08-17T14:47:12;99873.59;;;27.89;49.79
59315;BME280;46521;50.160;20.802;2023-08-17T14:57:13;99884.79;;;27.72;50.23
59315;BME280;46521;50.160;20.802;2023-08-17T15:07:15;99896.28;;;27.23;50.06
59315;BME280;46521;50.160;20.802;2023-08-17T15:17:17;99902.25;;;27.35;50.21
59315;BME280;46521;50.160;20.802;2023-08-17T15:27:18;99908.77;;;27.29;50.09
59315;BME280;46521;50.160;20.802;2023-08-17T15:37:20;99908.77;;;26.98;50.46
59315;BME280;46521;50.160;20.802;2023-08-17T15:47:21;99916.91;;;27.03;50.52
59315;BME280;46521;50.160;20.802;2023-08-17T15:57:23;99923.41;;;27.02;50.27
59315;BME280;46521;50.160;20.802;2023-08-17T16:07:25;99934.78;;;26.78;50.86
59315;BME280;46521;50.160;20.802;2023-08-17T16:17:26;99923.80;;;26.27;50.42
59315;BME280;46521;50.160;20.802;2023-08-17T16:27:28;99906.56;;;25.96;51.18
59315;BME280;46521;50.160;20.802;2023-08-17T16:37:29;99915.42;;;25.81;51.88
59315;BME280;46521;50.160;20.802;2023-08-17T16:47:31;99929.22;;;25.79;52.48
59315;BME280;46521;50.160;20.802;2023-08-17T16:57:33;99929.20;;;25.74;52.68
59315;BME280;46521;50.160;20.802;2023-08-17T17:07:34;99915.90;;;25.67;53.45
59315;BME280;46521;50.160;20.802;2023-08-17T17:17:36;99886.00;;;26.00;53.22
59315;BME280;46521;50.160;20.802;2023-08-17T17:27:37;99881.44;;;26.16;53.33
59315;BME280;46521;50.160;20.802;2023-08-17T17:37:39;99944.36;;;26.18;53.13
59315;BME280;46521;50.160;20.802;2023-08-17T17:47:41;100016.41;;;25.71;53.19
59315;BME280;46521;50.160;20.802;2023-08-17T17:57:42;100007.70;;;25.31;51.86
59315;BME280;46521;50.160;20.802;2023-08-17T18:07:44;99983.23;;;25.26;52.15
59315;BME280;46521;50.160;20.802;2023-08-17T18:17:45;99976.28;;;25.30;52.14
59315;BME280;46521;50.160;20.802;2023-08-17T18:27:46;99940.78;;;24.99;53.14
59315;BME280;46521;50.160;20.802;2023-08-17T18:37:48;99959.98;;;24.71;53.41
59315;BME280;46521;50.160;20.802;2023-08-17T18:47:50;99954.89;;;24.52;54.57
59315;BME280;46521;50.160;20.802;2023-08-17T18:57:51;99941.69;;;24.34;55.19
59315;BME280;46521;50.160;20.802;2023-08-17T19:07:55;99933.39;;;24.18;56.40
59315;BME280;46521;50.160;20.802;2023-08-17T19:17:58;99913.27;;;23.87;57.23
59315;BME280;46521;50.160;20.802;2023-08-17T19:28:00;99890.02;;;23.47;58.29
59315;BME280;46521;50.160;20.802;2023-08-17T19:38:01;99908.85;;;23.25;58.78
59315;BME280;46521;50.160;20.802;2023-08-17T19:48:03;99880.64;;;23.15;59.41
59315;BME280;46521;50.160;20.802;2023-08-17T19:58:05;99871.88;;;23.08;60.04
59315;BME280;46521;50.160;20.802;2023-08-17T20:08:07;99860.60;;;23.11;60.41
59315;BME280;46521;50.160;20.802;2023-08-17T20:18:08;99871.39;;;23.11;60.44
59315;BME280;46521;50.160;20.802;2023-08-17T20:28:11;99889.67;;;22.92;60.96
59315;BME280;46521;50.160;20.802;2023-08-17T20:38:13;99909.59;;;22.91;61.54
59315;BME280;46521;50.160;20.802;2023-08-17T20:48:14;99936.92;;;22.95;61.76
59315;BME280;46521;50.160;20.802;2023-08-17T20:58:16;99944.13;;;22.77;61.85
59315;BME280;46521;50.160;20.802;2023-08-17T21:08:17;99946.34;;;22.80;62.57
59315;BME280;46521;50.160;20.802;2023-08-17T21:18:19;99947.13;;;22.64;62.53
59315;BME280;46521;50.160;20.802;2023-08-17T21:28:20;99943.33;;;22.48;63.32
59315;BME280;46521;50.160;20.802;2023-08-17T21:38:22;99942.64;;;22.41;63.76
59315;BME280;46521;50.160;20.802;2023-08-17T21:48:24;99928.74;;;22.32;64.05
59315;BME280;46521;50.160;20.802;2023-08-17T21:58:25;99933.36;;;22.48;63.97
59315;BME280;46521;50.160;20.802;2023-08-17T22:08:26;99915.55;;;22.47;64.21
59315;BME280;46521;50.160;20.802;2023-08-17T22:18:28;99918.53;;;22.34;64.30
59315;BME280;46521;50.160;20.802;2023-08-17T22:28:29;99917.97;;;22.32;64.83
59315;BME280;46521;50.160;20.802;2023-08-17T22:38:31;99923.86;;;22.05;64.91
59315;BME280;46521;50.160;20.802;2023-08-17T22:48:32;99923.86;;;21.82;65.65
59315;BME280;46521;50.160;20.802;2023-08-17T22:58:34;99927.16;;;21.84;65.69
59315;BME280;46521;50.160;20.802;2023-08-17T23:08:35;99931.96;;;21.70;66.29
59315;BME280;46521;50.160;20.802;2023-08-17T23:18:37;99928.20;;;21.83;66.36
59315;BME280;46521;50.160;20.802;2023-08-17T23:28:38;99913.08;;;22.05;66.58
59315;BME280;46521;50.160;20.802;2023-08-17T23:38:40;99915.17;;;22.03;66.51
59315;BME280;46521;50.160;20.802;2023-08-17T23:48:41;99904.34;;;21.74;67.35
59315;BME280;46521;50.160;20.802;2023-08-17T23:58:43;99919.89;;;21.96;67.20
